Time;durP1;ratioP1;P1;durP2;ratioP2;P2;SDS_P1;SDS_P2;PMS_P1;PMS_P2;Temp;Humidity;BMP_temperature;BMP_pressure;BME280_temperature;BME280_humidity;BME280_pressure;Samples;Min_cycle;Max_cycle;Signal;HPM_P1;HPM_P2
2022/11/15 00:01:57;;;;;;;47.90;31.40;;;12.10;49.80;;;;;;5053013;28;20249;-42
2022/11/15 00:04:23;;;;;;;43.73;31.93;;;12.10;49.60;;;;;;5052554;28;20200;-41
2022/11/15 00:06:48;;;;;;;42.40;30.50;;;12.10;49.90;;;;;;5052178;28;20545;-41
2022/11/15 00:09:14;;;;;;;45.47;30.73;;;12.10;49.60;;;;;;5052671;28;20251;-42
2022/11/15 00:11:40;;;;;;;40.83;29.00;;;12.10;49.50;;;;;;5052764;28;20247;-41
2022/11/15 00:14:05;;;;;;;42.73;30.17;;;12.10;49.50;;;;;;5052496;28;20275;-41
2022/11/15 00:16:31;;;;;;;45.60;29.70;;;12.10;50.00;;;;;;5051951;28;20597;-41
2022/11/15 00:18:57;;;;;;;48.10;31.53;;;12.10;50.10;;;;;;5052544;28;20165;-41
2022/11/15 00:21:23;;;;;;;44.90;31.33;;;12.10;49.80;;;;;;5052547;28;20185;-41
2022/11/15 00:23:49;;;;;;;41.10;30.30;;;12.10;49.60;;;;;;5052257;28;20251;-41
2022/11/15 00:26:15;;;;;;;37.90;29.70;;;12.10;50.00;;;;;;5051810;28;20176;-41
2022/11/15 00:28:41;;;;;;;39.63;29.48;;;12.10;49.90;;;;;;5052345;28;20169;-41
2022/11/15 00:31:11;;;;;;;47.75;31.98;;;12.10;49.70;;;;;;5052284;28;20710;-41
2022/11/15 00:33:36;;;;;;;43.38;31.75;;;12.10;49.70;;;;;;5051916;28;20189;-41
2022/11/15 00:36:04;;;;;;;45.27;30.97;;;12.10;49.80;;;;;;5051046;28;20201;-41
2022/11/15 00:38:34;;;;;;;48.67;32.35;;;12.10;49.60;;;;;;5052228;28;20166;-40
2022/11/15 00:41:01;;;;;;;47.47;31.67;;;12.10;49.50;;;;;;5052559;28;20161;-41
2022/11/15 00:43:27;;;;;;;46.33;31.02;;;12.10;49.40;;;;;;5052089;28;20657;-41
2022/11/15 00:45:53;;;;;;;45.90;31.60;;;12.10;49.70;;;;;;5051678;28;20178;-41
2022/11/15 00:48:18;;;;;;;41.87;29.90;;;12.10;49.50;;;;;;5052077;28;20177;-40
2022/11/15 00:50:44;;;;;;;41.00;29.10;;;12.10;49.40;;;;;;5052030;28;20451;-39
2022/11/15 00:53:10;;;;;;;47.73;30.27;;;12.10;49.40;;;;;;5052014;28;20189;-41
2022/11/15 00:55:36;;;;;;;46.07;32.30;;;12.20;49.40;;;;;;5051482;28;20649;-41
2022/11/15 00:58:02;;;;;;;44.37;30.33;;;12.20;49.30;;;;;;5052027;28;20911;-41
2022/11/15 01:00:28;;;;;;;42.42;30.20;;;12.20;49.20;;;;;;5051933;28;20888;-41
2022/11/15 01:02:53;;;;;;;48.07;29.93;;;12.20;49.10;;;;;;5051912;28;20196;-41
2022/11/15 01:05:20;;;;;;;48.10;31.93;;;12.10;49.20;;;;;;5051900;28;20161;-41
2022/11/15 01:07:45;;;;;;;47.65;33.20;;;12.20;49.00;;;;;;5051361;28;20165;-41
2022/11/15 01:10:11;;;;;;;46.43;31.27;;;12.20;48.80;;;;;;5051953;28;20311;-41
2022/11/15 01:12:37;;;;;;;48.63;32.47;;;12.20;49.10;;;;;;5051902;28;20302;-41
2022/11/15 01:15:04;;;;;;;50.20;29.87;;;12.20;49.30;;;;;;5052030;28;20242;-41
2022/11/15 01:17:30;;;;;;;42.53;29.52;;;12.20;49.50;;;;;;5051624;28;20176;-41
2022/11/15 01:19:56;;;;;;;47.65;32.50;;;12.10;49.30;;;;;;5053673;28;20175;-41
2022/11/15 01:22:22;;;;;;;48.40;32.10;;;12.20;49.40;;;;;;5056371;28;20630;-41
2022/11/15 01:24:50;;;;;;;49.03;29.60;;;12.20;49.20;;;;;;5055932;28;20534;-40
2022/11/15 01:27:15;;;;;;;48.03;33.33;;;12.10;49.40;;;;;;5054848;28;20411;-41
2022/11/15 01:29:41;;;;;;;46.63;31.40;;;12.10;49.50;;;;;;5055077;28;20177;-41
2022/11/15 01:32:07;;;;;;;41.80;29.53;;;12.20;49.40;;;;;;5053449;28;20174;-41
2022/11/15 01:34:33;;;;;;;50.35;31.40;;;12.20;49.10;;;;;;5052403;28;20208;-41
2022/11/15 01:36:59;;;;;;;45.90;30.73;;;12.20;49.00;;;;;;5051195;28;20236;-41
2022/11/15 01:39:25;;;;;;;47.90;32.80;;;12.20;49.30;;;;;;5051669;28;20223;-41
2022/11/15 01:41:50;;;;;;;47.55;30.33;;;12.20;49.10;;;;;;5051578;28;20184;-40
2022/11/15 01:44:34;;;;;;;51.90;33.53;;;12.20;49.10;;;;;;5051450;28;20241;-41
2022/11/15 01:47:03;;;;;;;45.78;30.60;;;12.20;49.20;;;;;;5053839;28;20173;-40
2022/11/15 01:49:32;;;;;;;46.90;30.35;;;12.20;49.50;;;;;;5055419;28;20207;-41
2022/11/15 01:52:00;;;;;;;50.33;30.13;;;12.20;49.40;;;;;;5055366;28;20192;-40
2022/11/15 01:54:26;;;;;;;50.97;30.90;;;12.20;49.20;;;;;;5055120;28;20707;-41
2022/11/15 01:57:07;;;;;;;48.00;31.17;;;12.20;49.30;;;;;;5054666;28;20169;-41
2022/11/15 01:59:34;;;;;;;47.80;31.50;;;12.20;49.50;;;;;;5055216;28;20252;-41
2022/11/15 02:02:00;;;;;;;42.75;29.98;;;12.20;49.60;;;;;;5055115;28;20165;-41
2022/11/15 02:04:50;;;;;;;51.10;32.10;;;12.20;49.50;;;;;;5055100;28;20199;-41
2022/11/15 02:07:19;;;;;;;52.53;31.35;;;12.20;49.70;;;;;;5054085;28;20470;-41
2022/11/15 02:09:45;;;;;;;49.88;30.88;;;12.20;49.50;;;;;;5055038;28;20541;-40
2022/11/15 02:12:15;;;;;;;52.60;30.63;;;12.20;49.50;;;;;;5054975;28;20181;-41
2022/11/15 02:14:44;;;;;;;42.42;29.20;;;12.20;49.50;;;;;;5054784;28;20213;-41
2022/11/15 02:17:37;;;;;;;48.88;32.05;;;12.20;49.50;;;;;;5054214;28;20179;-41
2022/11/15 02:20:18;;;;;;;51.47;29.95;;;12.20;49.80;;;;;;5054845;28;20648;-41
2022/11/15 02:22:59;;;;;;;45.13;30.60;;;12.20;49.80;;;;;;5054619;28;20197;-41
2022/11/15 02:25:35;;;;;;;45.65;28.10;;;12.20;49.80;;;;;;5054567;28;20223;-41
2022/11/15 02:28:32;;;;;;;49.20;33.53;;;12.20;50.00;;;;;;5054634;28;20239;-41
2022/11/15 02:31:13;;;;;;;44.63;28.50;;;12.20;50.20;;;;;;5010213;28;20195;-41
2022/11/15 02:34:06;;;;;;;44.47;28.77;;;12.20;50.00;;;;;;5054533;28;20274;-41
2022/11/15 02:36:49;;;;;;;50.65;31.20;;;12.20;49.60;;;;;;5054057;28;20161;-41
2022/11/15 02:39:29;;;;;;;50.17;28.58;;;12.20;49.60;;;;;;5054572;28;20154;-41
2022/11/15 02:42:03;;;;;;;51.67;32.47;;;12.20;49.50;;;;;;5054353;28;20173;-41
2022/11/15 02:44:37;;;;;;;42.03;29.50;;;12.20;49.70;;;;;;5054252;28;20280;-42
2022/11/15 02:47:14;;;;;;;38.63;25.83;;;12.30;49.70;;;;;;5053773;28;20177;-42
2022/11/15 02:49:43;;;;;;;35.53;26.95;;;12.20;49.40;;;;;;5054234;28;20173;-42
2022/11/15 02:52:09;;;;;;;46.35;28.25;;;12.20;49.50;;;;;;5054174;28;20191;-42
2022/11/15 02:54:35;;;;;;;46.67;32.03;;;12.20;49.60;;;;;;5053942;28;20677;-42
2022/11/15 02:57:10;;;;;;;44.60;31.25;;;12.20;49.50;;;;;;5052829;28;20249;-41
2022/11/15 02:59:59;;;;;;;41.83;27.30;;;12.20;49.50;;;;;;5054135;28;20169;-42
2022/11/15 03:02:50;;;;;;;43.50;27.75;;;12.20;49.50;;;;;;5054070;28;20593;-42
2022/11/15 03:05:31;;;;;;;42.75;29.73;;;12.20;49.60;;;;;;5053907;28;20256;-41
2022/11/15 03:07:59;;;;;;;43.45;28.08;;;12.20;49.40;;;;;;5053369;28;20244;-41
2022/11/15 03:10:57;;;;;;;43.20;29.95;;;12.20;49.40;;;;;;5053838;28;20184;-42
2022/11/15 03:13:54;;;;;;;43.10;29.05;;;12.20;49.30;;;;;;5053610;28;20193;-41
2022/11/15 03:16:40;;;;;;;41.63;27.95;;;12.10;49.30;;;;;;5053177;28;20154;-42
2022/11/15 03:19:46;;;;;;;44.40;27.70;;;12.10;49.30;;;;;;5053741;28;20617;-42
2022/11/15 03:22:18;;;;;;;43.42;28.52;;;12.10;49.30;;;;;;5049777;28;20626;-42
2022/11/15 03:24:47;;;;;;;41.63;26.10;;;12.10;49.40;;;;;;5053453;28;20284;-41
2022/11/15 03:27:17;;;;;;;41.75;26.98;;;12.10;49.50;;;;;;5052994;28;20258;-42
2022/11/15 03:29:54;;;;;;;43.67;29.25;;;12.10;49.60;;;;;;5053478;28;20640;-42
2022/11/15 03:32:25;;;;;;;43.88;27.98;;;12.10;49.50;;;;;;5053411;28;20247;-41
2022/11/15 03:35:20;;;;;;;45.83;29.10;;;12.10;49.40;;;;;;5053275;28;20695;-42
2022/11/15 03:38:08;;;;;;;42.35;27.48;;;12.10;49.20;;;;;;5051540;28;20699;-42
2022/11/15 03:41:00;;;;;;;41.40;27.98;;;12.10;49.20;;;;;;5053312;28;20809;-41
2022/11/15 03:44:16;;;;;;;42.25;27.38;;;12.00;49.30;;;;;;5053136;28;20181;-41
2022/11/15 03:47:02;;;;;;;48.63;27.85;;;12.00;49.30;;;;;;5008085;28;20183;-41
2022/11/15 03:49:33;;;;;;;43.50;28.13;;;12.00;49.60;;;;;;5053147;28;20222;-41
2022/11/15 03:52:00;;;;;;;38.53;27.30;;;12.00;49.60;;;;;;5053124;28;20237;-41
2022/11/15 03:54:26;;;;;;;46.10;27.15;;;12.00;49.50;;;;;;5052918;28;20205;-40
2022/11/15 03:56:52;;;;;;;39.97;23.20;;;12.00;49.50;;;;;;5052520;28;20184;-41
2022/11/15 03:59:18;;;;;;;43.40;28.90;;;12.00;49.40;;;;;;5052860;28;20342;-41
2022/11/15 04:01:43;;;;;;;42.37;26.33;;;12.00;49.40;;;;;;5052987;28;20626;-41
2022/11/15 04:04:09;;;;;;;42.17;25.03;;;12.00;49.30;;;;;;5052760;28;20185;-40
2022/11/15 04:06:35;;;;;;;40.00;27.30;;;12.00;49.10;;;;;;5052249;28;20249;-40
2022/11/15 04:09:00;;;;;;;38.67;26.03;;;12.00;49.20;;;;;;5052652;28;20170;-41
2022/11/15 04:11:26;;;;;;;45.20;27.57;;;12.00;49.20;;;;;;5052723;28;20619;-41
2022/11/15 04:13:52;;;;;;;41.10;25.77;;;12.00;49.40;;;;;;5052480;28;20185;-41
2022/11/15 04:16:18;;;;;;;42.90;25.27;;;12.00;49.30;;;;;;5052092;28;20173;-41
2022/11/15 04:18:43;;;;;;;41.37;22.70;;;12.00;49.10;;;;;;5052594;28;20165;-41
2022/11/15 04:26:37;;;;;;;36.15;26.13;;;11.90;49.00;;;;;;5051875;28;20204;-41
2022/11/15 04:31:48;;;;;;;43.00;26.10;;;11.90;49.50;;;;;;5054202;23;20224;-46
2022/11/15 04:34:13;;;;;;;41.73;25.60;;;11.80;49.50;;;;;;5032346;28;20561;-46
2022/11/15 04:39:24;;;;;;;38.97;24.85;;;11.90;49.40;;;;;;5032420;28;20157;-46
2022/11/15 04:41:49;;;;;;;37.80;27.23;;;11.90;49.20;;;;;;5045692;28;20189;-46
2022/11/15 04:44:16;;;;;;;36.43;23.93;;;11.90;49.30;;;;;;5052344;28;20533;-46
2022/11/15 04:46:41;;;;;;;39.28;23.60;;;11.90;49.30;;;;;;5051876;28;20540;-47
2022/11/15 04:49:07;;;;;;;38.23;26.50;;;11.90;49.40;;;;;;5052297;28;20174;-46
2022/11/15 04:51:33;;;;;;;34.10;23.70;;;11.90;49.20;;;;;;5052145;28;20193;-46
2022/11/15 04:53:58;;;;;;;36.30;23.87;;;11.90;49.40;;;;;;5052268;28;20173;-47
2022/11/15 04:56:24;;;;;;;37.90;22.93;;;11.90;49.30;;;;;;5051734;28;20169;-47
2022/11/15 04:58:50;;;;;;;35.43;25.30;;;11.90;49.30;;;;;;5052264;28;20222;-47
2022/11/15 05:01:16;;;;;;;33.13;23.33;;;11.90;49.20;;;;;;5052330;28;20196;-46
2022/11/15 05:06:28;;;;;;;40.85;24.80;;;11.90;49.10;;;;;;5051490;28;20218;-47
2022/11/15 05:08:54;;;;;;;32.92;22.10;;;11.90;49.00;;;;;;5052045;28;20188;-46
2022/11/15 05:11:20;;;;;;;37.63;24.50;;;11.90;49.00;;;;;;5052018;28;20279;-44
2022/11/15 05:13:46;;;;;;;37.90;24.15;;;11.90;49.40;;;;;;5050757;28;20188;-43
2022/11/15 05:16:12;;;;;;;37.67;22.67;;;11.90;49.30;;;;;;5051427;28;20617;-43
2022/11/15 05:18:40;;;;;;;38.47;24.97;;;11.90;49.90;;;;;;5052099;28;20867;-44
2022/11/15 05:21:11;;;;;;;34.22;24.15;;;11.90;49.10;;;;;;5053812;28;20216;-44
2022/11/15 05:23:37;;;;;;;44.45;27.70;;;11.90;49.10;;;;;;5056084;28;20647;-44
2022/11/15 05:26:05;;;;;;;34.57;25.80;;;11.90;49.30;;;;;;5055677;28;20173;-44
2022/11/15 05:28:31;;;;;;;41.58;25.10;;;11.90;49.10;;;;;;5055941;28;20858;-44
2022/11/15 05:31:06;;;;;;;42.50;26.20;;;11.90;48.80;;;;;;5055711;28;20240;-44
2022/11/15 05:33:33;;;;;;;39.90;26.75;;;11.90;48.70;;;;;;5055853;28;20175;-44
2022/11/15 05:36:05;;;;;;;37.95;25.02;;;11.80;48.80;;;;;;5055119;28;20197;-43
2022/11/15 05:38:31;;;;;;;38.03;22.02;;;11.80;48.90;;;;;;5055796;28;20165;-44
2022/11/15 05:40:57;;;;;;;39.30;25.13;;;11.80;49.10;;;;;;5054488;28;20681;-44
2022/11/15 05:43:23;;;;;;;34.40;22.57;;;11.80;49.90;;;;;;5055664;28;20257;-43
2022/11/15 05:45:50;;;;;;;37.30;25.40;;;11.80;49.20;;;;;;5055318;28;20426;-43
2022/11/15 05:48:16;;;;;;;35.20;24.50;;;11.80;49.20;;;;;;5055737;28;20223;-44
2022/11/15 05:50:45;;;;;;;36.05;26.50;;;11.80;49.10;;;;;;5055458;28;20692;-44
2022/11/15 05:53:14;;;;;;;36.97;27.48;;;11.80;49.10;;;;;;5055747;28;20189;-43
2022/11/15 05:55:40;;;;;;;39.25;26.67;;;11.80;49.00;;;;;;5054520;28;20208;-44
2022/11/15 05:58:07;;;;;;;37.13;24.55;;;11.80;48.80;;;;;;5055299;28;20182;-44
2022/11/15 06:00:33;;;;;;;38.80;23.95;;;11.80;48.60;;;;;;5055149;28;20608;-44
2022/11/15 06:02:58;;;;;;;36.40;23.33;;;11.80;48.60;;;;;;5055300;28;20629;-44
2022/11/15 06:05:24;;;;;;;34.90;24.00;;;11.70;48.40;;;;;;5055176;28;20234;-44
2022/11/15 06:07:50;;;;;;;39.60;24.23;;;11.70;48.60;;;;;;5054757;28;20661;-44
2022/11/15 06:10:16;;;;;;;38.10;23.77;;;11.70;48.80;;;;;;5055001;28;20181;-44
2022/11/15 06:12:42;;;;;;;38.97;22.92;;;11.60;49.10;;;;;;5055069;28;20212;-44
2022/11/15 06:15:08;;;;;;;34.57;24.93;;;11.60;49.20;;;;;;5055109;28;20248;-44
2022/11/15 06:17:34;;;;;;;42.75;26.55;;;11.60;49.20;;;;;;5054523;28;20176;-44
2022/11/15 06:19:59;;;;;;;39.33;25.50;;;11.60;49.30;;;;;;5054868;28;20621;-43
2022/11/15 06:22:25;;;;;;;41.67;26.10;;;11.60;49.50;;;;;;5054805;28;20238;-44
2022/11/15 06:24:51;;;;;;;34.73;23.87;;;11.60;49.50;;;;;;5054705;28;20169;-44
2022/11/15 06:27:16;;;;;;;41.03;25.17;;;11.60;49.40;;;;;;5054236;28;20525;-44
2022/11/15 06:29:42;;;;;;;38.70;24.63;;;11.70;49.40;;;;;;5054817;28;20176;-43
2022/11/15 06:32:08;;;;;;;35.47;24.27;;;11.70;49.20;;;;;;5054650;28;20217;-44
2022/11/15 06:34:35;;;;;;;37.77;24.70;;;11.70;49.10;;;;;;5054918;28;20200;-43
2022/11/15 06:37:02;;;;;;;35.00;23.40;;;11.70;48.80;;;;;;5054011;28;20675;-44
2022/11/15 06:39:27;;;;;;;33.70;24.50;;;11.70;48.60;;;;;;5054400;28;20170;-44
2022/11/15 06:41:53;;;;;;;35.17;23.03;;;11.60;48.20;;;;;;5054479;28;20215;-44
2022/11/15 06:44:19;;;;;;;34.80;21.77;;;11.60;48.30;;;;;;5054465;28;20161;-44
2022/11/15 06:46:44;;;;;;;33.33;21.13;;;11.50;48.00;;;;;;5054091;28;20649;-44
2022/11/15 06:49:10;;;;;;;33.07;20.17;;;11.50;47.70;;;;;;5054414;28;20177;-44
2022/11/15 06:51:36;;;;;;;32.33;21.07;;;11.50;47.50;;;;;;5054325;28;20189;-44
2022/11/15 06:54:02;;;;;;;31.53;19.40;;;11.40;47.60;;;;;;5054074;28;20660;-44
2022/11/15 06:56:27;;;;;;;38.47;22.90;;;11.30;47.60;;;;;;5053937;28;20173;-43
2022/11/15 06:58:53;;;;;;;32.20;22.43;;;11.30;47.80;;;;;;5054141;28;20790;-43
2022/11/15 07:01:19;;;;;;;34.33;23.00;;;11.30;47.90;;;;;;5054052;28;20189;-43
2022/11/15 07:03:46;;;;;;;37.40;23.57;;;11.30;47.90;;;;;;5054275;28;20264;-43
2022/11/15 07:06:11;;;;;;;38.60;23.60;;;11.30;47.90;;;;;;5053510;28;20173;-43
2022/11/15 07:08:37;;;;;;;34.87;21.70;;;11.30;47.90;;;;;;5053869;28;20252;-43
2022/11/15 07:11:08;;;;;;;31.70;20.98;;;11.30;47.90;;;;;;5054065;28;20197;-43
2022/11/15 07:13:34;;;;;;;32.70;22.10;;;11.40;48.00;;;;;;5054043;28;20178;-44
2022/11/15 07:16:09;;;;;;;32.20;23.17;;;11.40;47.90;;;;;;5053313;28;20263;-44
2022/11/15 07:18:39;;;;;;;35.22;22.90;;;11.40;47.90;;;;;;5053878;28;20699;-43
2022/11/15 07:21:07;;;;;;;37.00;22.80;;;11.40;47.90;;;;;;5053673;28;20197;-42
2022/11/15 07:23:33;;;;;;;34.20;23.00;;;11.40;48.30;;;;;;5053844;28;20268;-43
2022/11/15 07:25:59;;;;;;;31.17;20.53;;;11.50;48.30;;;;;;5052994;28;20662;-42
2022/11/15 07:28:28;;;;;;;36.80;23.35;;;11.50;48.30;;;;;;5053552;28;20584;-44
2022/11/15 07:30:54;;;;;;;26.45;20.35;;;11.60;48.40;;;;;;5053410;28;20209;-42
2022/11/15 07:33:20;;;;;;;36.08;22.90;;;11.60;48.90;;;;;;5053591;28;20181;-43
2022/11/15 07:35:48;;;;;;;31.73;22.40;;;11.70;49.10;;;;;;5053084;28;20549;-43
2022/11/15 07:38:15;;;;;;;37.33;20.13;;;11.80;48.80;;;;;;5053505;28;20200;-42
2022/11/15 07:40:41;;;;;;;31.65;22.27;;;11.80;48.80;;;;;;5053420;28;20225;-43
2022/11/15 07:43:08;;;;;;;33.73;22.90;;;11.90;48.90;;;;;;5053175;28;20220;-43
2022/11/15 07:45:39;;;;;;;34.55;23.27;;;12.00;49.30;;;;;;5052518;28;20465;-43
2022/11/15 07:48:05;;;;;;;41.15;25.48;;;12.00;49.50;;;;;;5053182;28;20173;-43
2022/11/15 07:50:31;;;;;;;33.90;21.73;;;12.10;49.50;;;;;;5052992;28;20177;-43
2022/11/15 07:52:59;;;;;;;34.97;23.07;;;12.10;49.50;;;;;;5053034;28;20268;-44
2022/11/15 07:55:27;;;;;;;33.90;22.10;;;12.20;49.50;;;;;;5052863;28;20691;-44
2022/11/15 07:57:53;;;;;;;30.73;23.02;;;12.30;49.50;;;;;;5052510;28;20536;-43
2022/11/15 08:00:19;;;;;;;38.67;26.07;;;12.30;49.30;;;;;;5052897;28;20256;-43
2022/11/15 08:02:45;;;;;;;35.95;23.95;;;12.40;49.20;;;;;;5052869;28;20641;-42
2022/11/15 08:05:11;;;;;;;31.67;21.57;;;12.50;49.10;;;;;;5052808;28;20193;-45
2022/11/15 08:07:37;;;;;;;33.10;21.10;;;12.60;48.90;;;;;;5051960;28;20415;-45
2022/11/15 08:10:05;;;;;;;38.03;26.20;;;12.70;48.80;;;;;;5052800;28;20927;-45
2022/11/15 08:12:31;;;;;;;34.60;23.02;;;12.80;48.70;;;;;;5052844;28;20232;-46
2022/11/15 08:14:57;;;;;;;33.47;21.13;;;13.10;49.00;;;;;;5052676;28;20200;-45
2022/11/15 08:17:24;;;;;;;26.60;19.60;;;13.40;48.50;;;;;;5052304;28;20536;-46
2022/11/15 08:19:50;;;;;;;33.78;22.35;;;13.90;47.40;;;;;;5051442;28;20330;-47
2022/11/15 08:22:16;;;;;;;25.63;17.87;;;14.40;46.40;;;;;;5052420;28;20239;-47
2022/11/15 08:24:42;;;;;;;27.13;19.23;;;14.90;45.00;;;;;;5052708;28;20400;-46
2022/11/15 08:27:16;;;;;;;29.40;17.60;;;15.20;43.60;;;;;;5051900;28;20675;-46
2022/11/15 08:29:46;;;;;;;24.90;18.25;;;15.30;42.80;;;;;;5052459;28;20247;-46
2022/11/15 08:32:11;;;;;;;26.58;17.75;;;15.30;42.80;;;;;;5052179;28;20220;-45
2022/11/15 08:34:38;;;;;;;26.70;18.40;;;15.40;43.00;;;;;;5052587;28;20553;-46
2022/11/15 08:37:04;;;;;;;21.70;17.08;;;15.60;43.20;;;;;;5051717;28;20396;-45
2022/11/15 08:39:30;;;;;;;22.92;17.60;;;15.90;41.80;;;;;;5052337;28;20173;-44
2022/11/15 08:41:56;;;;;;;29.00;19.30;;;16.30;41.00;;;;;;5052293;28;20556;-43
2022/11/15 08:44:23;;;;;;;27.40;17.73;;;16.60;40.50;;;;;;5052246;28;20462;-44
2022/11/15 08:46:49;;;;;;;23.40;17.88;;;17.00;40.10;;;;;;5051815;28;20204;-43
2022/11/15 08:49:15;;;;;;;28.00;17.33;;;17.40;38.80;;;;;;5052357;28;20300;-44
2022/11/15 08:51:41;;;;;;;25.20;18.70;;;17.80;39.30;;;;;;5052112;28;20354;-43
2022/11/15 08:54:07;;;;;;;22.00;17.87;;;18.10;37.80;;;;;;5052087;28;20407;-44
2022/11/15 08:56:33;;;;;;;24.07;17.20;;;18.20;38.20;;;;;;5050828;28;20637;-44
2022/11/15 08:58:58;;;;;;;21.97;17.20;;;18.30;38.10;;;;;;5052079;28;20169;-44
2022/11/15 09:01:24;;;;;;;24.50;18.07;;;17.70;38.00;;;;;;5052324;28;20189;-44
2022/11/15 09:03:50;;;;;;;22.83;17.43;;;18.20;36.40;;;;;;5052009;28;20172;-44
2022/11/15 09:06:16;;;;;;;24.08;17.45;;;17.90;37.40;;;;;;5051284;28;20269;-44
2022/11/15 09:08:42;;;;;;;22.90;17.17;;;17.80;37.60;;;;;;5052057;28;20248;-45
2022/11/15 09:11:09;;;;;;;20.70;16.90;;;17.60;38.30;;;;;;5051953;28;20246;-46
2022/11/15 09:13:39;;;;;;;24.38;17.65;;;17.50;38.60;;;;;;5051841;28;20256;-43
2022/11/15 09:16:05;;;;;;;25.00;19.30;;;17.40;38.00;;;;;;5051190;28;20271;-45
2022/11/15 09:18:31;;;;;;;25.73;20.67;;;17.20;38.70;;;;;;5051864;28;20174;-46
2022/11/15 09:20:58;;;;;;;20.02;15.68;;;17.10;39.20;;;;;;5052058;28;20201;-45
2022/11/15 09:23:24;;;;;;;24.75;18.13;;;17.00;38.80;;;;;;5051837;28;20218;-46
2022/11/15 09:25:51;;;;;;;21.42;15.95;;;16.90;39.80;;;;;;5051264;28;20255;-46
2022/11/15 09:28:17;;;;;;;26.77;18.27;;;16.90;40.10;;;;;;5051717;28;20173;-45
2022/11/15 09:30:42;;;;;;;24.27;18.40;;;16.90;39.40;;;;;;5051566;28;20220;-45
2022/11/15 09:33:10;;;;;;;25.87;19.87;;;16.70;39.30;;;;;;5051912;28;20454;-46
2022/11/15 09:35:36;;;;;;;26.35;17.88;;;16.70;39.30;;;;;;5050911;28;20197;-46
2022/11/15 09:38:02;;;;;;;27.23;19.23;;;16.60;39.30;;;;;;5051784;28;20268;-46
2022/11/15 09:40:32;;;;;;;29.67;20.75;;;16.70;39.90;;;;;;5051604;28;20416;-44
2022/11/15 09:42:57;;;;;;;23.63;19.83;;;16.80;39.60;;;;;;5051716;28;20181;-44
2022/11/15 09:45:45;;;;;;;24.23;17.40;;;16.60;39.10;;;;;;5051879;28;20215;-44
2022/11/15 09:48:16;;;;;;;24.48;17.23;;;16.50;39.50;;;;;;5051730;28;20184;-43
2022/11/15 09:50:51;;;;;;;21.65;16.88;;;16.50;40.20;;;;;;5051547;28;20209;-45
2022/11/15 09:53:48;;;;;;;22.50;16.63;;;16.60;40.90;;;;;;5050207;28;20212;-44
2022/11/15 09:56:22;;;;;;;22.77;15.95;;;17.30;39.80;;;;;;5050858;28;20280;-44
2022/11/15 09:59:24;;;;;;;25.95;17.27;;;18.00;38.30;;;;;;5051520;28;20146;-45
2022/11/15 10:02:17;;;;;;;22.20;17.05;;;18.60;37.40;;;;;;5051323;28;20704;-44
2022/11/15 10:04:43;;;;;;;22.95;16.65;;;19.00;37.00;;;;;;5051648;28;20243;-46
2022/11/15 10:07:25;;;;;;;21.50;16.48;;;19.20;36.60;;;;;;5052482;28;20272;-45
2022/11/15 10:10:09;;;;;;;21.42;14.23;;;19.50;35.10;;;;;;5055141;28;20204;-45
2022/11/15 10:12:35;;;;;;;22.77;16.20;;;20.00;35.00;;;;;;5054022;28;20571;-44
2022/11/15 10:15:06;;;;;;;20.60;15.80;;;20.30;34.60;;;;;;5054930;28;20289;-46
2022/11/15 10:17:53;;;;;;;18.77;15.68;;;20.30;34.80;;;;;;5054343;28;20487;-46
2022/11/15 10:20:28;;;;;;;25.45;17.17;;;20.00;34.10;;;;;;5054990;28;20244;-44
2022/11/15 10:23:00;;;;;;;21.23;15.90;;;19.90;34.60;;;;;;5055002;28;20169;-46
2022/11/15 10:25:31;;;;;;;23.70;16.00;;;19.80;35.20;;;;;;5055114;28;20192;-46
2022/11/15 10:28:01;;;;;;;19.85;15.32;;;19.50;34.30;;;;;;5054485;28;20165;-45
2022/11/15 10:30:48;;;;;;;19.20;14.65;;;19.20;35.00;;;;;;5054563;28;20189;-45
2022/11/15 10:33:29;;;;;;;19.73;15.95;;;18.90;35.80;;;;;;5076706;22;20217;-41
2022/11/15 10:36:12;;;;;;;20.77;13.98;;;18.80;35.90;;;;;;5053999;28;20193;-41
2022/11/15 10:38:53;;;;;;;20.52;15.20;;;18.70;36.10;;;;;;5054424;28;20564;-41
2022/11/15 10:41:29;;;;;;;21.98;14.77;;;18.70;35.90;;;;;;5054481;28;20644;-41
2022/11/15 10:44:06;;;;;;;20.23;15.50;;;18.60;36.00;;;;;;5054340;28;20319;-41
2022/11/15 10:46:34;;;;;;;20.42;16.42;;;18.80;36.40;;;;;;5053878;28;20201;-41
2022/11/15 10:49:28;;;;;;;23.85;16.10;;;18.90;36.30;;;;;;5054274;28;20169;-41
2022/11/15 10:51:56;;;;;;;22.58;17.08;;;18.90;35.70;;;;;;5052237;28;20534;-41
2022/11/15 10:54:36;;;;;;;21.48;15.85;;;18.80;36.10;;;;;;5054291;28;20212;-41
2022/11/15 10:57:18;;;;;;;20.77;14.82;;;18.70;36.00;;;;;;5054005;28;20687;-41
2022/11/15 10:59:50;;;;;;;19.20;14.80;;;18.70;36.80;;;;;;5054196;28;20245;-41
2022/11/15 11:02:35;;;;;;;20.50;15.15;;;18.70;35.60;;;;;;5053968;28;20208;-41
2022/11/15 11:05:03;;;;;;;19.80;15.35;;;18.60;36.10;;;;;;5054048;28;20179;-41
2022/11/15 11:07:32;;;;;;;18.70;14.68;;;18.60;36.50;;;;;;5053432;28;20260;-41
2022/11/15 11:10:21;;;;;;;23.05;16.23;;;18.60;36.50;;;;;;5053826;28;20260;-41
2022/11/15 11:12:47;;;;;;;20.73;15.75;;;18.60;36.60;;;;;;5054086;28;20221;-41
2022/11/15 11:15:14;;;;;;;22.33;15.10;;;18.60;36.70;;;;;;5053768;28;20616;-41
2022/11/15 11:18:09;;;;;;;23.02;15.20;;;18.60;36.50;;;;;;5053311;28;20165;-41
2022/11/15 11:20:41;;;;;;;19.42;15.18;;;18.60;36.20;;;;;;5054095;28;20205;-41
2022/11/15 11:23:13;;;;;;;16.95;14.27;;;18.60;36.80;;;;;;5053606;28;20193;-41
2022/11/15 11:25:46;;;;;;;21.25;16.35;;;18.60;36.60;;;;;;5053199;28;20177;-41
2022/11/15 11:28:13;;;;;;;21.15;15.13;;;18.60;37.00;;;;;;5054015;28;20248;-41
2022/11/15 11:31:12;;;;;;;20.17;14.35;;;18.70;36.30;;;;;;5053402;28;20181;-41
2022/11/15 11:34:07;;;;;;;18.77;14.00;;;18.60;35.50;;;;;;5053381;28;20575;-41
2022/11/15 11:36:44;;;;;;;20.25;13.65;;;18.50;36.30;;;;;;5025635;28;20311;-41
2022/11/15 11:39:52;;;;;;;16.45;13.32;;;18.40;36.60;;;;;;5053503;28;20181;-41
2022/11/15 11:42:36;;;;;;;21.55;14.07;;;18.70;36.00;;;;;;5044845;28;20188;-41
2022/11/15 11:45:20;;;;;;;20.25;14.80;;;19.10;35.60;;;;;;5053208;28;20283;-41
2022/11/15 11:48:04;;;;;;;16.63;12.85;;;19.10;35.10;;;;;;5052788;28;20161;-41
2022/11/15 11:50:31;;;;;;;20.25;14.68;;;19.20;35.30;;;;;;5053137;28;20193;-41
2022/11/15 11:53:24;;;;;;;21.83;14.80;;;19.60;35.50;;;;;;5053056;28;20209;-41
2022/11/15 11:55:57;;;;;;;20.15;14.82;;;19.90;33.90;;;;;;5052685;28;20196;-41
2022/11/15 11:58:44;;;;;;;20.00;14.18;;;19.90;34.70;;;;;;5053024;28;20162;-41
2022/11/15 12:01:20;;;;;;;20.13;15.18;;;20.00;33.50;;;;;;5052907;28;20218;-41
2022/11/15 12:03:56;;;;;;;19.55;14.25;;;19.90;32.60;;;;;;5052811;28;20216;-41
2022/11/15 12:06:40;;;;;;;18.65;14.90;;;19.60;34.60;;;;;;5052298;28;20153;-41
2022/11/15 12:09:11;;;;;;;19.50;13.48;;;19.70;35.00;;;;;;5052871;28;20510;-44
2022/11/15 12:12:11;;;;;;;20.38;14.85;;;20.00;34.90;;;;;;5052776;28;20631;-44
2022/11/15 12:14:55;;;;;;;21.00;14.25;;;20.40;33.00;;;;;;5052590;28;20200;-44
2022/11/15 12:17:33;;;;;;;20.83;15.07;;;20.60;33.70;;;;;;5052102;28;20165;-44
2022/11/15 12:20:01;;;;;;;24.17;13.88;;;20.90;32.80;;;;;;5052671;28;20232;-44
2022/11/15 12:22:42;;;;;;;19.67;14.07;;;21.00;33.10;;;;;;5052409;28;20193;-44
2022/11/15 12:25:33;;;;;;;18.30;14.18;;;21.50;31.90;;;;;;5052664;28;20165;-44
2022/11/15 12:28:16;;;;;;;19.88;14.93;;;22.00;31.00;;;;;;5052550;28;20563;-44
2022/11/15 12:30:53;;;;;;;16.08;13.93;;;22.00;30.80;;;;;;5052335;28;20517;-44
2022/11/15 12:33:41;;;;;;;21.20;14.45;;;22.10;30.40;;;;;;5052230;28;20216;-43
2022/11/15 12:36:11;;;;;;;20.17;15.27;;;21.90;30.70;;;;;;5052152;28;20200;-44
2022/11/15 12:39:05;;;;;;;18.08;13.18;;;21.90;30.60;;;;;;5052292;28;20184;-43
2022/11/15 12:41:42;;;;;;;18.40;14.13;;;22.30;29.90;;;;;;5052514;28;20173;-43
2022/11/15 12:44:33;;;;;;;18.77;13.33;;;22.90;30.80;;;;;;5052384;28;20423;-43
2022/11/15 12:46:58;;;;;;;19.53;14.80;;;23.80;27.30;;;;;;5040677;28;20511;-44
2022/11/15 12:49:27;;;;;;;18.07;14.20;;;24.30;27.10;;;;;;5052140;28;20970;-44
2022/11/15 12:51:59;;;;;;;18.70;15.63;;;24.50;26.60;;;;;;5052587;28;20256;-44
2022/11/15 12:54:24;;;;;;;17.93;15.10;;;24.70;26.50;;;;;;5051995;28;20796;-44
2022/11/15 12:57:08;;;;;;;18.67;14.57;;;24.70;27.20;;;;;;5051526;28;20409;-44
2022/11/15 12:59:55;;;;;;;16.73;13.70;;;24.70;26.80;;;;;;5052045;28;20230;-44
2022/11/15 13:02:35;;;;;;;20.03;13.90;;;24.20;27.40;;;;;;5051772;28;20879;-44
2022/11/15 13:05:18;;;;;;;18.83;15.90;;;23.80;26.60;;;;;;5051975;28;20910;-43